createdAt,value
2023-04-24T00:00:20.493Z,14.09
2023-04-24T00:04:18.588Z,14.06
2023-04-24T00:06:49.759Z,14.03
2023-04-24T00:09:17.973Z,14.02
2023-04-24T00:11:46.178Z,14.00
2023-04-24T00:14:14.421Z,13.98
2023-04-24T00:16:42.540Z,13.95
2023-04-24T00:19:12.412Z,13.94
2023-04-24T00:21:42.011Z,13.92
2023-04-24T00:24:10.121Z,13.90
2023-04-24T00:26:38.196Z,13.86
2023-04-24T00:29:06.498Z,13.84
2023-04-24T00:31:35.180Z,13.82
2023-04-24T00:34:03.753Z,13.82
2023-04-24T00:36:32.942Z,13.82
2023-04-24T00:39:01.161Z,13.80
2023-04-24T00:41:30.336Z,13.79
2023-04-24T00:43:58.498Z,13.77
2023-04-24T00:46:27.233Z,13.72
2023-04-24T00:48:56.363Z,13.70
2023-04-24T00:51:24.926Z,13.67
2023-04-24T00:53:52.972Z,13.63
2023-04-24T00:56:21.520Z,13.59
2023-04-24T00:58:50.183Z,13.55
2023-04-24T01:01:21.183Z,13.53
2023-04-24T01:03:51.945Z,13.50
2023-04-24T01:06:21.134Z,13.48
2023-04-24T01:08:49.432Z,13.48
2023-04-24T01:11:18.605Z,13.46
2023-04-24T01:13:47.889Z,13.45
2023-04-24T01:16:17.804Z,13.44
2023-04-24T01:18:46.617Z,13.43
2023-04-24T01:21:17.152Z,13.42
2023-04-24T01:23:45.860Z,13.41
2023-04-24T01:26:19.911Z,13.41
2023-04-24T01:28:48.967Z,13.41
2023-04-24T01:31:20.483Z,13.41
2023-04-24T01:33:52.873Z,13.39
2023-04-24T01:36:22.943Z,13.36
2023-04-24T01:42:29.328Z,13.30
2023-04-24T01:44:59.077Z,13.29
2023-04-24T01:47:32.610Z,13.26
2023-04-24T01:50:13.193Z,13.24
2023-04-24T01:52:41.422Z,13.22
2023-04-24T01:55:12.188Z,13.21
2023-04-24T01:57:41.005Z,13.21
2023-04-24T02:00:12.540Z,13.18
2023-04-24T02:03:15.496Z,13.16
2023-04-24T02:05:45.997Z,13.15
2023-04-24T02:08:14.163Z,13.14
2023-04-24T02:10:42.349Z,13.15
2023-04-24T02:13:10.536Z,13.14
2023-04-24T02:15:38.639Z,13.15
2023-04-24T02:18:09.059Z,13.15
2023-04-24T02:20:38.120Z,13.13
2023-04-24T02:23:06.135Z,13.15
2023-04-24T02:25:34.797Z,13.14
2023-04-24T02:28:03.522Z,13.15
2023-04-24T02:30:32.699Z,13.15
2023-04-24T02:33:00.929Z,13.14
2023-04-24T02:35:29.526Z,13.14
2023-04-24T02:37:57.679Z,13.14
2023-04-24T02:40:25.685Z,13.14
2023-04-24T02:42:53.962Z,13.13
2023-04-24T02:45:22.059Z,13.13
2023-04-24T02:47:50.339Z,13.12
2023-04-24T02:50:18.791Z,13.11
2023-04-24T02:52:46.758Z,13.08
2023-04-24T02:55:14.952Z,13.06
2023-04-24T02:57:43.029Z,13.02
2023-04-24T03:00:13.781Z,12.99
2023-04-24T03:02:42.120Z,12.95
2023-04-24T03:05:12.302Z,12.92
2023-04-24T03:07:42.546Z,12.88
2023-04-24T03:10:11.348Z,12.84
2023-04-24T03:12:39.717Z,12.80
2023-04-24T03:15:13.176Z,12.76
2023-04-24T03:17:41.344Z,12.73
2023-04-24T03:20:10.936Z,12.71
2023-04-24T03:22:39.148Z,12.69
2023-04-24T03:25:10.245Z,12.68
2023-04-24T03:27:39.952Z,12.68
2023-04-24T03:30:16.097Z,12.68
2023-04-24T03:32:48.050Z,12.67
2023-04-24T03:35:19.268Z,12.66
2023-04-24T03:37:47.406Z,12.65
2023-04-24T03:40:34.445Z,12.66
2023-04-24T03:43:03.267Z,12.67
2023-04-24T03:45:31.263Z,12.70
2023-04-24T03:47:59.662Z,12.70
2023-04-24T03:50:29.473Z,12.72
2023-04-24T03:52:58.216Z,12.75
2023-04-24T03:55:35.847Z,12.80
2023-04-24T03:58:04.070Z,12.83
2023-04-24T04:00:32.551Z,12.87
2023-04-24T04:03:38.642Z,12.91
2023-04-24T04:06:07.276Z,12.99
2023-04-24T04:08:35.701Z,13.11
2023-04-24T04:11:05.539Z,13.21
2023-04-24T04:13:33.974Z,13.32
2023-04-24T04:16:02.380Z,13.54
2023-04-24T04:18:30.972Z,14.00
2023-04-24T04:21:01.590Z,14.55
2023-04-24T04:23:30.543Z,15.10
2023-04-24T04:26:44.511Z,15.66
2023-04-24T04:29:19.977Z,16.18
2023-04-24T04:31:52.736Z,16.68
2023-04-24T04:34:46.135Z,17.17
2023-04-24T04:37:14.731Z,17.64
2023-04-24T04:39:56.671Z,17.98
2023-04-24T04:42:27.440Z,18.24
2023-04-24T04:44:57.768Z,18.40
2023-04-24T04:47:32.159Z,18.60
2023-04-24T04:50:01.279Z,18.81
2023-04-24T04:52:30.175Z,19.12
2023-04-24T04:55:08.224Z,19.36
2023-04-24T04:58:00.732Z,19.60
2023-04-24T05:00:35.964Z,19.89
2023-04-24T05:06:03.207Z,20.65
2023-04-24T05:08:33.506Z,21.02
2023-04-24T05:11:02.054Z,21.39
2023-04-24T05:13:39.718Z,21.79
2023-04-24T05:16:13.944Z,22.26
2023-04-24T05:18:42.475Z,22.74
2023-04-24T05:24:26.608Z,24.07
2023-04-24T05:27:16.500Z,24.92
2023-04-24T05:29:44.952Z,25.52
2023-04-24T05:32:13.376Z,26.04
2023-04-24T05:34:44.124Z,26.49
2023-04-24T05:37:12.444Z,26.64
2023-04-24T05:39:41.673Z,26.27
2023-04-24T05:42:10.384Z,25.69
2023-04-24T05:44:38.367Z,25.19
2023-04-24T05:47:12.641Z,24.69
2023-04-24T05:49:53.733Z,24.10
2023-04-24T05:52:22.104Z,23.80
2023-04-24T05:54:50.547Z,23.58
2023-04-24T05:57:22.433Z,23.12
2023-04-24T05:59:54.848Z,22.60
2023-04-24T06:02:23.335Z,22.21
2023-04-24T06:05:03.285Z,21.95
2023-04-24T06:07:32.887Z,21.83
2023-04-24T06:10:05.125Z,22.09
2023-04-24T06:12:56.183Z,22.51
2023-04-24T06:19:13.366Z,23.68
2023-04-24T06:21:41.564Z,24.45
2023-04-24T06:24:09.796Z,25.38
2023-04-24T06:27:05.299Z,26.19
2023-04-24T06:29:37.173Z,27.13
2023-04-24T06:32:05.641Z,27.99
2023-04-24T06:34:34.483Z,28.78
2023-04-24T06:37:03.715Z,29.55
2023-04-24T06:39:31.827Z,30.24
2023-04-24T06:42:00.807Z,30.69
2023-04-24T06:44:28.906Z,31.01
2023-04-24T06:46:57.031Z,31.40
2023-04-24T06:49:25.416Z,31.88
2023-04-24T06:51:56.711Z,32.23
2023-04-24T06:54:25.307Z,32.43
2023-04-24T06:56:53.554Z,32.81
2023-04-24T06:59:21.781Z,33.14
2023-04-24T07:01:49.968Z,33.44
2023-04-24T07:04:18.638Z,33.60
2023-04-24T07:06:49.498Z,33.83
2023-04-24T07:09:18.810Z,34.29
2023-04-24T07:11:47.068Z,34.59
2023-04-24T07:14:15.651Z,34.81
2023-04-24T07:16:44.242Z,34.69
2023-04-24T07:19:13.232Z,34.15
2023-04-24T07:21:41.608Z,33.55
2023-04-24T07:24:11.144Z,33.05
2023-04-24T07:26:39.709Z,32.63
2023-04-24T07:29:08.291Z,32.18
2023-04-24T07:31:36.585Z,32.00
2023-04-24T07:34:04.632Z,31.84
2023-04-24T07:36:32.921Z,31.62
2023-04-24T07:39:01.100Z,31.36
2023-04-24T07:41:29.314Z,30.94
2023-04-24T07:43:57.449Z,30.49
2023-04-24T07:46:25.825Z,30.02
2023-04-24T07:49:12.910Z,29.57
2023-04-24T07:51:42.490Z,29.18
2023-04-24T07:54:11.073Z,28.91
2023-04-24T07:56:44.433Z,28.64
2023-04-24T07:59:15.176Z,28.37
2023-04-24T08:01:43.411Z,28.07
2023-04-24T08:04:11.772Z,27.75
2023-04-24T08:06:40.288Z,27.45
2023-04-24T08:09:08.841Z,27.18
2023-04-24T08:11:37.050Z,26.94
2023-04-24T08:14:05.253Z,26.66
2023-04-24T08:16:34.500Z,26.33
2023-04-24T08:19:02.646Z,25.94
2023-04-24T08:21:30.749Z,25.55
2023-04-24T08:23:58.849Z,25.18
2023-04-24T08:26:27.022Z,24.81
2023-04-24T08:28:55.069Z,24.47
2023-04-24T08:31:25.350Z,24.20
2023-04-24T08:33:53.483Z,23.94
2023-04-24T08:36:21.636Z,23.72
2023-04-24T08:38:49.764Z,23.53
2023-04-24T08:41:19.756Z,23.36
2023-04-24T08:43:48.528Z,23.21
2023-04-24T08:46:17.376Z,23.11
2023-04-24T08:48:45.969Z,22.97
2023-04-24T08:51:14.084Z,22.78
2023-04-24T08:53:42.473Z,22.70
2023-04-24T08:56:12.058Z,22.66
2023-04-24T08:58:41.437Z,22.66
2023-04-24T09:01:09.909Z,22.68
2023-04-24T09:03:39.412Z,22.64
2023-04-24T09:06:10.974Z,22.64
2023-04-24T09:08:41.879Z,22.66
2023-04-24T09:11:12.380Z,22.66
2023-04-24T09:13:41.577Z,22.68
2023-04-24T09:16:10.502Z,22.69
2023-04-24T09:18:38.755Z,22.74
2023-04-24T09:21:10.467Z,22.83
2023-04-24T09:23:39.272Z,22.93
2023-04-24T09:26:09.849Z,22.99
2023-04-24T09:28:39.640Z,23.19
2023-04-24T09:31:09.671Z,23.53
2023-04-24T09:33:38.203Z,23.84
2023-04-24T09:36:06.788Z,24.01
2023-04-24T09:38:44.706Z,24.08
2023-04-24T09:41:15.564Z,24.12
2023-04-24T09:43:43.937Z,24.09
2023-04-24T09:46:12.035Z,24.02
2023-04-24T09:48:40.383Z,24.06
2023-04-24T09:51:11.016Z,24.22
2023-04-24T09:53:40.422Z,24.44
2023-04-24T09:56:10.498Z,24.73
2023-04-24T09:58:38.876Z,25.02
2023-04-24T10:01:07.026Z,25.29
2023-04-24T10:06:49.171Z,25.70
2023-04-24T10:09:18.496Z,25.89
2023-04-24T10:11:48.199Z,26.12
2023-04-24T10:14:17.715Z,26.33
2023-04-24T10:16:47.522Z,26.50
2023-04-24T10:19:27.808Z,26.63
2023-04-24T10:21:58.063Z,26.78
2023-04-24T10:24:27.065Z,26.90
2023-04-24T10:26:57.191Z,27.02
2023-04-24T10:29:26.928Z,27.09
2023-04-24T10:31:55.462Z,27.04
2023-04-24T10:34:24.989Z,26.96
2023-04-24T10:36:58.300Z,26.89
2023-04-24T10:39:44.980Z,26.84
2023-04-24T10:42:17.590Z,26.75
2023-04-24T10:44:49.465Z,26.60
2023-04-24T10:47:23.985Z,26.41
2023-04-24T10:49:53.194Z,26.27
2023-04-24T10:52:21.702Z,26.15
2023-04-24T10:54:50.783Z,26.10
2023-04-24T10:57:35.841Z,26.03
2023-04-24T11:00:20.556Z,25.89
2023-04-24T11:02:53.574Z,25.76
2023-04-24T11:05:23.012Z,25.65
2023-04-24T11:08:46.753Z,25.55
2023-04-24T11:11:27.230Z,25.43
2023-04-24T11:14:07.158Z,25.21
2023-04-24T11:16:49.781Z,24.81
2023-04-24T11:19:24.533Z,24.43
2023-04-24T11:26:12.819Z,24.12
2023-04-24T11:29:25.170Z,24.13
2023-04-24T11:31:54.684Z,24.16
2023-04-24T11:34:23.730Z,24.17
2023-04-24T11:36:51.970Z,24.17
2023-04-24T11:39:20.149Z,24.17
2023-04-24T11:41:48.387Z,24.16
2023-04-24T11:47:18.444Z,24.14
2023-04-24T11:49:48.176Z,24.08
2023-04-24T11:52:18.072Z,23.95
2023-04-24T11:57:52.292Z,23.75
2023-04-24T12:00:22.409Z,23.78
2023-04-24T12:02:51.932Z,23.79
2023-04-24T12:05:26.787Z,23.80
2023-04-24T12:07:55.731Z,23.83
2023-04-24T12:10:26.296Z,23.81
2023-04-24T12:12:56.168Z,23.79
2023-04-24T12:15:28.218Z,23.77
2023-04-24T12:17:59.647Z,23.79
2023-04-24T12:20:29.839Z,23.80
2023-04-24T12:22:59.223Z,23.81
2023-04-24T12:25:29.320Z,23.80
2023-04-24T12:28:11.526Z,23.79
2023-04-24T12:30:43.464Z,23.81
2023-04-24T12:33:12.208Z,23.75
2023-04-24T12:35:57.024Z,23.70
2023-04-24T12:38:31.290Z,23.64
2023-04-24T12:41:06.569Z,23.59
2023-04-24T12:43:35.546Z,23.54
2023-04-24T12:46:06.375Z,23.51
2023-04-24T12:48:34.618Z,23.50
2023-04-24T12:51:02.874Z,23.47
2023-04-24T12:53:31.533Z,23.43
2023-04-24T12:55:59.586Z,23.31
2023-04-24T12:58:28.985Z,23.15
2023-04-24T13:00:57.309Z,22.95
2023-04-24T13:03:26.500Z,22.71
2023-04-24T13:05:54.765Z,22.46
2023-04-24T13:08:23.151Z,22.20
2023-04-24T13:10:52.405Z,21.98
2023-04-24T13:13:20.684Z,21.82
2023-04-24T13:15:52.410Z,21.66
2023-04-24T13:18:20.454Z,21.50
2023-04-24T13:20:48.525Z,21.35
2023-04-24T13:23:17.545Z,21.26
2023-04-24T13:25:45.913Z,21.16
2023-04-24T13:28:13.935Z,21.05
2023-04-24T13:30:42.584Z,20.96
2023-04-24T13:33:10.863Z,20.90
2023-04-24T13:35:39.104Z,20.84
2023-04-24T13:38:07.149Z,20.82
2023-04-24T13:40:35.824Z,20.79
2023-04-24T13:43:04.226Z,20.79
2023-04-24T13:45:32.336Z,20.84
2023-04-24T13:48:00.722Z,20.89
2023-04-24T13:50:28.807Z,20.93
2023-04-24T13:53:02.024Z,20.99
2023-04-24T13:55:31.418Z,21.05
2023-04-24T13:57:59.814Z,21.06
2023-04-24T14:00:28.204Z,21.05
2023-04-24T14:02:56.396Z,21.05
2023-04-24T14:05:25.343Z,21.04
2023-04-24T14:07:53.460Z,21.04
2023-04-24T14:10:21.708Z,21.05
2023-04-24T14:12:53.397Z,21.12
2023-04-24T14:15:21.759Z,21.18
2023-04-24T14:17:50.383Z,21.27
2023-04-24T14:20:18.623Z,21.38
2023-04-24T14:22:47.527Z,21.48
2023-04-24T14:25:16.287Z,21.52
2023-04-24T14:27:44.474Z,21.50
2023-04-24T14:30:13.923Z,21.50
2023-04-24T14:32:42.328Z,21.51
2023-04-24T14:35:30.710Z,21.52
2023-04-24T14:38:00.709Z,21.51
2023-04-24T14:40:58.346Z,21.50
2023-04-24T14:43:17.240Z,21.49
2023-04-24T14:45:45.870Z,21.49
2023-04-24T14:48:14.012Z,21.50
2023-04-24T14:50:42.255Z,21.53
2023-04-24T14:53:11.120Z,21.57
2023-04-24T14:55:39.835Z,21.62
2023-04-24T14:58:08.220Z,21.66
2023-04-24T15:00:36.775Z,21.70
2023-04-24T15:03:05.474Z,21.72
2023-04-24T15:05:34.093Z,21.76
2023-04-24T15:08:03.061Z,21.76
2023-04-24T15:10:31.301Z,21.74
2023-04-24T15:12:59.447Z,21.72
2023-04-24T15:15:29.071Z,21.70
2023-04-24T15:17:57.896Z,21.68
2023-04-24T15:20:26.393Z,21.62
2023-04-24T15:22:54.437Z,21.57
2023-04-24T15:25:35.974Z,21.55
2023-04-24T15:28:05.144Z,21.56
2023-04-24T15:30:33.962Z,21.56
2023-04-24T15:33:02.332Z,21.54
2023-04-24T15:35:33.050Z,21.55
2023-04-24T15:38:01.541Z,21.54
2023-04-24T15:40:29.677Z,21.54
2023-04-24T15:42:57.978Z,21.52
2023-04-24T15:45:26.339Z,21.51
2023-04-24T15:47:54.714Z,21.52
2023-04-24T15:50:23.323Z,21.53
2023-04-24T15:52:51.442Z,21.51
2023-04-24T15:55:19.985Z,21.50
2023-04-24T15:57:48.163Z,21.49
2023-04-24T16:00:18.677Z,21.49
2023-04-24T16:02:46.882Z,21.46
2023-04-24T16:05:19.314Z,21.45
2023-04-24T16:07:49.081Z,21.43
2023-04-24T16:10:17.375Z,21.40
2023-04-24T16:12:46.185Z,21.37
2023-04-24T16:15:14.467Z,21.36
2023-04-24T16:17:42.520Z,21.34
2023-04-24T16:20:12.377Z,21.32
2023-04-24T16:22:40.716Z,21.32
2023-04-24T16:25:37.826Z,21.30
2023-04-24T16:28:41.784Z,21.29
2023-04-24T16:31:11.437Z,21.26
2023-04-24T16:33:40.011Z,21.23
2023-04-24T16:36:08.793Z,21.18
2023-04-24T16:38:37.568Z,21.15
2023-04-24T16:41:07.449Z,21.10
2023-04-24T16:43:35.642Z,21.04
2023-04-24T16:46:04.198Z,20.99
2023-04-24T16:48:33.357Z,20.93
2023-04-24T16:51:01.604Z,20.88
2023-04-24T16:53:31.092Z,20.83
2023-04-24T16:55:59.318Z,20.80
2023-04-24T16:58:27.442Z,20.74
2023-04-24T17:01:10.813Z,20.69
2023-04-24T17:03:39.148Z,20.64
2023-04-24T17:06:08.075Z,20.60
2023-04-24T17:08:38.977Z,20.53
2023-04-24T17:11:07.253Z,20.47
2023-04-24T17:13:35.572Z,20.42
2023-04-24T17:16:06.045Z,20.36
2023-04-24T17:21:29.037Z,20.24
2023-04-24T17:23:57.329Z,20.19
2023-04-24T17:26:25.461Z,20.13
2023-04-24T17:29:42.293Z,20.08
2023-04-24T17:32:10.794Z,20.03
2023-04-24T17:34:39.086Z,19.97
2023-04-24T17:37:07.452Z,19.91
2023-04-24T17:39:35.633Z,19.86
2023-04-24T17:42:04.018Z,19.82
2023-04-24T17:44:32.280Z,19.76
2023-04-24T17:47:04.128Z,19.72
2023-04-24T17:49:32.829Z,19.66
2023-04-24T17:52:01.727Z,19.61
2023-04-24T17:54:31.165Z,19.56
2023-04-24T17:57:02.771Z,19.51
2023-04-24T17:59:32.041Z,19.46
2023-04-24T18:02:09.047Z,19.40
2023-04-24T18:04:38.759Z,19.35
2023-04-24T18:07:07.324Z,19.32
2023-04-24T18:09:35.467Z,19.27
2023-04-24T18:12:06.743Z,19.21
2023-04-24T18:14:34.936Z,19.16
2023-04-24T18:17:55.741Z,19.11
2023-04-24T18:20:24.008Z,19.05
2023-04-24T18:22:52.823Z,19.01
2023-04-24T18:25:25.739Z,18.97
2023-04-24T18:27:55.827Z,18.95
2023-04-24T18:30:25.542Z,18.94
2023-04-24T18:32:54.577Z,18.91
2023-04-24T18:35:23.257Z,18.89
2023-04-24T18:37:53.547Z,18.86
2023-04-24T18:40:21.816Z,18.84
2023-04-24T18:43:14.055Z,18.80
2023-04-24T18:45:42.656Z,18.77
2023-04-24T18:48:11.055Z,18.73
2023-04-24T18:50:49.885Z,18.70
2023-04-24T18:53:21.383Z,18.66
2023-04-24T18:55:51.906Z,18.62
2023-04-24T18:58:23.249Z,18.58
2023-04-24T19:00:51.543Z,18.54
2023-04-24T19:03:20.395Z,18.51
2023-04-24T19:05:48.930Z,18.47
2023-04-24T19:08:17.209Z,18.43
2023-04-24T19:10:45.718Z,18.40
2023-04-24T19:13:19.650Z,18.37
2023-04-24T19:15:48.038Z,18.34
2023-04-24T19:18:18.525Z,18.31
2023-04-24T19:20:46.724Z,18.28
2023-04-24T19:23:15.129Z,18.24
2023-04-24T19:25:43.376Z,18.21
2023-04-24T19:28:11.940Z,18.18
2023-04-24T19:30:40.373Z,18.14
2023-04-24T19:33:21.991Z,18.10
2023-04-24T19:35:55.925Z,18.05
2023-04-24T19:38:24.824Z,18.00
2023-04-24T19:40:55.052Z,17.96
2023-04-24T19:43:25.918Z,17.91
2023-04-24T19:45:54.193Z,17.86
2023-04-24T19:48:25.026Z,17.82
2023-04-24T19:50:53.574Z,17.78
2023-04-24T19:53:21.684Z,17.74
2023-04-24T19:55:49.937Z,17.70
2023-04-24T19:58:18.157Z,17.65
2023-04-24T20:00:46.322Z,17.62
2023-04-24T20:03:25.528Z,17.56
2023-04-24T20:05:59.074Z,17.49
2023-04-24T20:08:27.328Z,17.42
2023-04-24T20:10:57.051Z,17.37
2023-04-24T20:13:27.050Z,17.31
2023-04-24T20:15:55.194Z,17.25
2023-04-24T20:18:23.395Z,17.19
2023-04-24T20:20:58.984Z,17.13
2023-04-24T20:23:34.203Z,17.08
2023-04-24T20:26:27.448Z,17.04
2023-04-24T20:29:04.533Z,16.98
2023-04-24T20:31:55.203Z,16.93
2023-04-24T20:34:24.310Z,16.87
2023-04-24T20:36:52.523Z,16.81
2023-04-24T20:40:19.861Z,16.72
2023-04-24T20:45:52.816Z,16.56
2023-04-24T20:48:46.774Z,16.45
2023-04-24T20:51:19.732Z,16.37
2023-04-24T20:53:50.763Z,16.30
2023-04-24T20:56:45.117Z,16.24
2023-04-24T20:59:16.126Z,16.14
2023-04-24T21:05:44.736Z,15.91
2023-04-24T21:08:16.580Z,15.82
2023-04-24T21:11:10.710Z,15.73
2023-04-24T21:13:41.494Z,15.64
2023-04-24T21:16:12.528Z,15.57
2023-04-24T21:18:43.476Z,15.53
2023-04-24T21:21:14.375Z,15.47
2023-04-24T21:23:54.233Z,15.39
2023-04-24T21:26:31.095Z,15.32
2023-04-24T21:29:01.862Z,15.27
2023-04-24T21:31:32.670Z,15.21
2023-04-24T21:34:21.163Z,15.14
2023-04-24T21:36:52.020Z,15.08
2023-04-24T21:39:22.803Z,15.04
2023-04-24T21:41:53.566Z,14.99
2023-04-24T21:44:24.423Z,14.94
2023-04-24T21:46:57.645Z,14.88
2023-04-24T21:49:28.496Z,14.83
2023-04-24T21:52:02.556Z,14.78
2023-04-24T21:54:33.416Z,14.74
2023-04-24T21:57:38.208Z,14.71
2023-04-24T22:00:08.812Z,14.67
2023-04-24T22:02:39.963Z,14.64
2023-04-24T22:05:15.863Z,14.58
2023-04-24T22:07:59.320Z,14.53
2023-04-24T22:10:55.692Z,14.49
2023-04-24T22:13:27.355Z,14.45
2023-04-24T22:15:58.271Z,14.42
2023-04-24T22:18:45.998Z,14.39
2023-04-24T22:21:17.621Z,14.36
2023-04-24T22:23:48.809Z,14.32
2023-04-24T22:26:20.093Z,14.29
2023-04-24T22:28:50.907Z,14.26
2023-04-24T22:31:25.608Z,14.24
2023-04-24T22:33:56.837Z,14.21
2023-04-24T22:36:34.031Z,14.18
2023-04-24T22:39:05.680Z,14.16
2023-04-24T22:41:36.768Z,14.13
2023-04-24T22:44:10.378Z,14.10
2023-04-24T22:46:41.439Z,14.08
2023-04-24T22:49:12.448Z,14.05
2023-04-24T22:51:43.502Z,14.02
2023-04-24T22:54:14.546Z,14.00
2023-04-24T22:56:46.023Z,13.98
2023-04-24T22:59:16.872Z,13.96
2023-04-24T23:01:47.934Z,13.94
2023-04-24T23:04:19.021Z,13.92
2023-04-24T23:06:50.283Z,13.90
2023-04-24T23:09:21.216Z,13.88
2023-04-24T23:11:52.046Z,13.86
2023-04-24T23:14:35.016Z,13.84
2023-04-24T23:17:05.989Z,13.82
2023-04-24T23:19:47.048Z,13.79
2023-04-24T23:22:18.863Z,13.77
2023-04-24T23:24:49.995Z,13.75
2023-04-24T23:27:20.897Z,13.73
2023-04-24T23:29:52.136Z,13.70
2023-04-24T23:32:23.088Z,13.68
2023-04-24T23:34:54.021Z,13.68
2023-04-24T23:37:25.234Z,13.66
2023-04-24T23:39:56.063Z,13.64
2023-04-24T23:42:26.899Z,13.62
2023-04-24T23:44:57.668Z,13.61
2023-04-24T23:47:28.500Z,13.59
2023-04-24T23:49:59.328Z,13.58
2023-04-24T23:52:30.214Z,13.56
2023-04-24T23:55:01.021Z,13.55
2023-04-24T23:57:32.347Z,13.53
